sensor_id;sensor_type;location;lat;lon;timestamp;P1;durP1;ratioP1;P2;durP2;ratioP2
80508;SDS011;69838;52.602;13.434;2023-06-04T00:00:32;5.72;;;3.42;;
80508;SDS011;69838;52.602;13.434;2023-06-04T00:01:17;5.72;;;2.80;;
80508;SDS011;69838;52.602;13.434;2023-06-04T00:02:02;6.03;;;3.40;;
80508;SDS011;69838;52.602;13.434;2023-06-04T00:02:48;4.47;;;3.08;;
80508;SDS011;69838;52.602;13.434;2023-06-04T00:03:33;6.40;;;3.67;;
80508;SDS011;69838;52.602;13.434;2023-06-04T00:04:19;5.00;;;2.92;;
80508;SDS011;69838;52.602;13.434;2023-06-04T00:05:04;5.40;;;2.92;;
80508;SDS011;69838;52.602;13.434;2023-06-04T00:05:50;6.05;;;2.97;;
80508;SDS011;69838;52.602;13.434;2023-06-04T00:06:35;5.35;;;3.47;;
80508;SDS011;69838;52.602;13.434;2023-06-04T00:07:21;5.22;;;2.80;;
80508;SDS011;69838;52.602;13.434;2023-06-04T00:08:06;5.10;;;2.80;;
80508;SDS011;69838;52.602;13.434;2023-06-04T00:08:51;4.32;;;2.58;;
80508;SDS011;69838;52.602;13.434;2023-06-04T00:09:37;5.00;;;3.38;;
80508;SDS011;69838;52.602;13.434;2023-06-04T00:10:22;4.60;;;3.30;;
80508;SDS011;69838;52.602;13.434;2023-06-04T00:11:07;4.47;;;2.53;;
80508;SDS011;69838;52.602;13.434;2023-06-04T00:11:52;4.68;;;3.03;;
80508;SDS011;69838;52.602;13.434;2023-06-04T00:12:37;4.85;;;2.75;;
80508;SDS011;69838;52.602;13.434;2023-06-04T00:13:23;5.05;;;2.90;;
80508;SDS011;69838;52.602;13.434;2023-06-04T00:14:08;4.78;;;2.75;;
80508;SDS011;69838;52.602;13.434;2023-06-04T00:14:53;5.80;;;2.97;;
80508;SDS011;69838;52.602;13.434;2023-06-04T00:15:38;5.30;;;3.05;;
80508;SDS011;69838;52.602;13.434;2023-06-04T00:16:24;5.35;;;3.00;;
80508;SDS011;69838;52.602;13.434;2023-06-04T00:17:09;5.97;;;3.13;;
80508;SDS011;69838;52.602;13.434;2023-06-04T00:17:55;6.85;;;3.17;;
80508;SDS011;69838;52.602;13.434;2023-06-04T00:18:41;4.30;;;2.53;;
80508;SDS011;69838;52.602;13.434;2023-06-04T00:19:26;4.70;;;2.55;;
80508;SDS011;69838;52.602;13.434;2023-06-04T00:20:12;4.70;;;2.90;;
80508;SDS011;69838;52.602;13.434;2023-06-04T00:20:57;5.47;;;2.75;;
80508;SDS011;69838;52.602;13.434;2023-06-04T00:21:42;5.32;;;2.65;;
80508;SDS011;69838;52.602;13.434;2023-06-04T00:22:27;5.10;;;2.75;;
80508;SDS011;69838;52.602;13.434;2023-06-04T00:23:13;5.55;;;2.60;;
80508;SDS011;69838;52.602;13.434;2023-06-04T00:23:59;4.60;;;2.75;;
80508;SDS011;69838;52.602;13.434;2023-06-04T00:24:45;5.05;;;3.25;;
80508;SDS011;69838;52.602;13.434;2023-06-04T00:25:30;4.65;;;2.80;;
80508;SDS011;69838;52.602;13.434;2023-06-04T00:26:16;5.60;;;3.13;;
80508;SDS011;69838;52.602;13.434;2023-06-04T00:27:01;5.15;;;2.70;;
80508;SDS011;69838;52.602;13.434;2023-06-04T00:27:46;4.25;;;2.60;;
80508;SDS011;69838;52.602;13.434;2023-06-04T00:28:31;4.88;;;3.40;;
80508;SDS011;69838;52.602;13.434;2023-06-04T00:29:17;5.28;;;3.15;;
80508;SDS011;69838;52.602;13.434;2023-06-04T00:30:02;4.78;;;2.67;;
80508;SDS011;69838;52.602;13.434;2023-06-04T00:30:48;4.68;;;2.80;;
80508;SDS011;69838;52.602;13.434;2023-06-04T00:31:34;4.80;;;3.17;;
80508;SDS011;69838;52.602;13.434;2023-06-04T00:32:19;5.88;;;3.40;;
80508;SDS011;69838;52.602;13.434;2023-06-04T00:33:04;4.63;;;2.60;;
80508;SDS011;69838;52.602;13.434;2023-06-04T00:33:50;5.55;;;2.92;;
80508;SDS011;69838;52.602;13.434;2023-06-04T00:34:35;5.75;;;3.97;;
80508;SDS011;69838;52.602;13.434;2023-06-04T00:35:20;5.07;;;3.08;;
80508;SDS011;69838;52.602;13.434;2023-06-04T00:36:06;4.32;;;2.42;;
80508;SDS011;69838;52.602;13.434;2023-06-04T00:36:52;5.18;;;2.83;;
80508;SDS011;69838;52.602;13.434;2023-06-04T00:37:37;4.93;;;2.58;;
80508;SDS011;69838;52.602;13.434;2023-06-04T00:38:22;6.28;;;2.65;;
80508;SDS011;69838;52.602;13.434;2023-06-04T00:39:07;4.88;;;2.70;;
80508;SDS011;69838;52.602;13.434;2023-06-04T00:39:53;4.82;;;3.30;;
80508;SDS011;69838;52.602;13.434;2023-06-04T00:40:38;5.60;;;3.15;;
80508;SDS011;69838;52.602;13.434;2023-06-04T00:41:23;5.38;;;3.08;;
80508;SDS011;69838;52.602;13.434;2023-06-04T00:42:09;4.82;;;2.88;;
80508;SDS011;69838;52.602;13.434;2023-06-04T00:42:54;5.05;;;2.78;;
80508;SDS011;69838;52.602;13.434;2023-06-04T00:43:40;4.25;;;2.40;;
80508;SDS011;69838;52.602;13.434;2023-06-04T00:44:30;5.00;;;2.35;;
80508;SDS011;69838;52.602;13.434;2023-06-04T00:45:16;5.35;;;2.78;;
80508;SDS011;69838;52.602;13.434;2023-06-04T00:46:05;6.30;;;2.85;;
80508;SDS011;69838;52.602;13.434;2023-06-04T00:46:51;5.22;;;3.03;;
80508;SDS011;69838;52.602;13.434;2023-06-04T00:47:38;4.90;;;2.92;;
80508;SDS011;69838;52.602;13.434;2023-06-04T00:48:24;5.57;;;3.47;;
80508;SDS011;69838;52.602;13.434;2023-06-04T00:49:12;7.40;;;4.15;;
80508;SDS011;69838;52.602;13.434;2023-06-04T00:49:57;7.93;;;3.78;;
80508;SDS011;69838;52.602;13.434;2023-06-04T00:50:43;6.63;;;3.58;;
80508;SDS011;69838;52.602;13.434;2023-06-04T00:51:29;8.13;;;4.32;;
80508;SDS011;69838;52.602;13.434;2023-06-04T00:52:15;6.60;;;3.17;;
80508;SDS011;69838;52.602;13.434;2023-06-04T00:53:01;6.13;;;4.57;;
80508;SDS011;69838;52.602;13.434;2023-06-04T00:53:48;6.68;;;3.58;;
80508;SDS011;69838;52.602;13.434;2023-06-04T00:54:35;7.32;;;3.80;;
80508;SDS011;69838;52.602;13.434;2023-06-04T00:55:21;8.13;;;3.90;;
80508;SDS011;69838;52.602;13.434;2023-06-04T00:56:06;6.72;;;4.00;;
80508;SDS011;69838;52.602;13.434;2023-06-04T00:56:51;6.95;;;3.88;;
80508;SDS011;69838;52.602;13.434;2023-06-04T00:57:37;5.32;;;2.97;;
80508;SDS011;69838;52.602;13.434;2023-06-04T00:58:22;6.70;;;3.38;;
80508;SDS011;69838;52.602;13.434;2023-06-04T00:59:09;6.03;;;3.03;;
80508;SDS011;69838;52.602;13.434;2023-06-04T00:59:55;7.97;;;3.88;;
80508;SDS011;69838;52.602;13.434;2023-06-04T01:00:40;6.30;;;3.63;;
80508;SDS011;69838;52.602;13.434;2023-06-04T01:01:45;6.10;;;3.22;;
80508;SDS011;69838;52.602;13.434;2023-06-04T01:02:31;7.45;;;3.85;;
80508;SDS011;69838;52.602;13.434;2023-06-04T01:03:19;7.25;;;4.43;;
80508;SDS011;69838;52.602;13.434;2023-06-04T01:04:09;7.65;;;3.90;;
80508;SDS011;69838;52.602;13.434;2023-06-04T01:05:03;7.50;;;3.90;;
80508;SDS011;69838;52.602;13.434;2023-06-04T01:06:57;7.25;;;3.75;;
80508;SDS011;69838;52.602;13.434;2023-06-04T01:07:44;8.80;;;4.25;;
80508;SDS011;69838;52.602;13.434;2023-06-04T01:08:31;9.30;;;4.65;;
80508;SDS011;69838;52.602;13.434;2023-06-04T01:09:17;11.63;;;5.30;;
80508;SDS011;69838;52.602;13.434;2023-06-04T01:10:03;9.05;;;4.80;;
80508;SDS011;69838;52.602;13.434;2023-06-04T01:10:55;7.90;;;5.15;;
80508;SDS011;69838;52.602;13.434;2023-06-04T01:11:40;8.73;;;4.60;;
80508;SDS011;69838;52.602;13.434;2023-06-04T01:12:26;10.80;;;5.10;;
80508;SDS011;69838;52.602;13.434;2023-06-04T01:13:11;9.15;;;4.93;;
80508;SDS011;69838;52.602;13.434;2023-06-04T01:13:56;7.90;;;5.10;;
80508;SDS011;69838;52.602;13.434;2023-06-04T01:14:42;8.55;;;4.95;;
80508;SDS011;69838;52.602;13.434;2023-06-04T01:15:28;8.43;;;4.60;;
80508;SDS011;69838;52.602;13.434;2023-06-04T01:16:13;8.60;;;4.90;;
80508;SDS011;69838;52.602;13.434;2023-06-04T01:17:11;8.20;;;6.45;;
80508;SDS011;69838;52.602;13.434;2023-06-04T01:18:02;6.60;;;3.85;;
80508;SDS011;69838;52.602;13.434;2023-06-04T01:18:50;6.70;;;3.70;;
80508;SDS011;69838;52.602;13.434;2023-06-04T01:20:44;5.68;;;3.50;;
80508;SDS011;69838;52.602;13.434;2023-06-04T01:21:33;5.32;;;3.47;;
80508;SDS011;69838;52.602;13.434;2023-06-04T01:22:32;5.55;;;3.58;;
80508;SDS011;69838;52.602;13.434;2023-06-04T01:23:46;7.28;;;3.70;;
80508;SDS011;69838;52.602;13.434;2023-06-04T01:24:43;4.65;;;2.55;;
80508;SDS011;69838;52.602;13.434;2023-06-04T01:25:37;4.68;;;2.67;;
80508;SDS011;69838;52.602;13.434;2023-06-04T01:26:24;4.65;;;2.85;;
80508;SDS011;69838;52.602;13.434;2023-06-04T01:27:11;5.85;;;3.85;;
80508;SDS011;69838;52.602;13.434;2023-06-04T01:27:57;5.22;;;2.60;;
80508;SDS011;69838;52.602;13.434;2023-06-04T01:28:42;5.00;;;2.50;;
80508;SDS011;69838;52.602;13.434;2023-06-04T01:29:30;6.68;;;3.70;;
80508;SDS011;69838;52.602;13.434;2023-06-04T01:30:17;4.97;;;2.60;;
80508;SDS011;69838;52.602;13.434;2023-06-04T01:31:03;6.03;;;2.90;;
80508;SDS011;69838;52.602;13.434;2023-06-04T01:31:52;4.03;;;2.40;;
80508;SDS011;69838;52.602;13.434;2023-06-04T01:32:38;6.60;;;2.55;;
80508;SDS011;69838;52.602;13.434;2023-06-04T01:33:23;5.38;;;2.42;;
80508;SDS011;69838;52.602;13.434;2023-06-04T01:34:08;5.07;;;2.60;;
80508;SDS011;69838;52.602;13.434;2023-06-04T01:34:54;4.38;;;2.33;;
80508;SDS011;69838;52.602;13.434;2023-06-04T01:35:39;4.75;;;3.85;;
80508;SDS011;69838;52.602;13.434;2023-06-04T01:36:25;4.65;;;2.60;;
80508;SDS011;69838;52.602;13.434;2023-06-04T01:37:10;5.25;;;3.83;;
80508;SDS011;69838;52.602;13.434;2023-06-04T01:37:56;4.15;;;2.40;;
80508;SDS011;69838;52.602;13.434;2023-06-04T01:38:42;4.32;;;2.40;;
80508;SDS011;69838;52.602;13.434;2023-06-04T01:39:27;4.22;;;2.15;;
80508;SDS011;69838;52.602;13.434;2023-06-04T01:40:12;4.10;;;2.20;;
80508;SDS011;69838;52.602;13.434;2023-06-04T01:40:58;4.45;;;2.47;;
80508;SDS011;69838;52.602;13.434;2023-06-04T01:41:46;4.10;;;1.98;;
80508;SDS011;69838;52.602;13.434;2023-06-04T01:42:31;4.80;;;2.30;;
80508;SDS011;69838;52.602;13.434;2023-06-04T01:43:16;4.30;;;2.10;;
80508;SDS011;69838;52.602;13.434;2023-06-04T01:44:02;4.13;;;2.08;;
80508;SDS011;69838;52.602;13.434;2023-06-04T01:44:47;4.40;;;2.00;;
80508;SDS011;69838;52.602;13.434;2023-06-04T01:45:32;3.88;;;1.63;;
80508;SDS011;69838;52.602;13.434;2023-06-04T01:46:18;4.45;;;2.25;;
80508;SDS011;69838;52.602;13.434;2023-06-04T01:47:03;4.47;;;2.03;;
80508;SDS011;69838;52.602;13.434;2023-06-04T01:47:48;4.07;;;1.92;;
80508;SDS011;69838;52.602;13.434;2023-06-04T01:48:34;3.58;;;2.17;;
80508;SDS011;69838;52.602;13.434;2023-06-04T01:49:19;3.53;;;1.98;;
80508;SDS011;69838;52.602;13.434;2023-06-04T01:50:05;4.45;;;2.40;;
80508;SDS011;69838;52.602;13.434;2023-06-04T01:50:54;4.28;;;1.98;;
80508;SDS011;69838;52.602;13.434;2023-06-04T01:51:40;3.90;;;1.88;;
80508;SDS011;69838;52.602;13.434;2023-06-04T01:52:25;3.80;;;1.70;;
80508;SDS011;69838;52.602;13.434;2023-06-04T01:53:10;3.55;;;2.00;;
80508;SDS011;69838;52.602;13.434;2023-06-04T01:53:55;5.07;;;2.35;;
80508;SDS011;69838;52.602;13.434;2023-06-04T01:54:41;4.25;;;2.20;;
80508;SDS011;69838;52.602;13.434;2023-06-04T01:55:26;5.15;;;2.10;;
80508;SDS011;69838;52.602;13.434;2023-06-04T01:56:13;4.18;;;2.13;;
80508;SDS011;69838;52.602;13.434;2023-06-04T01:56:59;5.38;;;2.60;;
80508;SDS011;69838;52.602;13.434;2023-06-04T01:57:44;4.32;;;2.22;;
80508;SDS011;69838;52.602;13.434;2023-06-04T01:58:30;4.60;;;3.85;;
80508;SDS011;69838;52.602;13.434;2023-06-04T01:59:16;5.43;;;2.65;;
80508;SDS011;69838;52.602;13.434;2023-06-04T02:00:02;5.10;;;2.70;;
80508;SDS011;69838;52.602;13.434;2023-06-04T02:00:49;5.07;;;2.80;;
80508;SDS011;69838;52.602;13.434;2023-06-04T02:01:34;5.10;;;2.95;;
80508;SDS011;69838;52.602;13.434;2023-06-04T02:02:20;5.90;;;2.95;;
80508;SDS011;69838;52.602;13.434;2023-06-04T02:03:05;4.97;;;3.15;;
80508;SDS011;69838;52.602;13.434;2023-06-04T02:03:50;6.15;;;2.75;;
80508;SDS011;69838;52.602;13.434;2023-06-04T02:04:36;5.13;;;2.63;;
80508;SDS011;69838;52.602;13.434;2023-06-04T02:05:21;4.93;;;2.78;;
80508;SDS011;69838;52.602;13.434;2023-06-04T02:06:07;5.57;;;2.78;;
80508;SDS011;69838;52.602;13.434;2023-06-04T02:06:52;4.43;;;2.50;;
80508;SDS011;69838;52.602;13.434;2023-06-04T02:07:38;4.45;;;2.38;;
80508;SDS011;69838;52.602;13.434;2023-06-04T02:08:24;4.13;;;2.20;;
80508;SDS011;69838;52.602;13.434;2023-06-04T02:09:10;3.85;;;1.88;;
80508;SDS011;69838;52.602;13.434;2023-06-04T02:09:55;5.18;;;2.40;;
80508;SDS011;69838;52.602;13.434;2023-06-04T02:10:40;4.32;;;2.55;;
80508;SDS011;69838;52.602;13.434;2023-06-04T02:11:26;4.80;;;2.80;;
80508;SDS011;69838;52.602;13.434;2023-06-04T02:12:11;5.35;;;2.10;;
80508;SDS011;69838;52.602;13.434;2023-06-04T02:12:57;4.03;;;2.10;;
80508;SDS011;69838;52.602;13.434;2023-06-04T02:13:49;4.82;;;2.33;;
80508;SDS011;69838;52.602;13.434;2023-06-04T02:14:34;5.38;;;2.17;;
80508;SDS011;69838;52.602;13.434;2023-06-04T02:15:20;6.35;;;2.67;;
80508;SDS011;69838;52.602;13.434;2023-06-04T02:16:05;5.97;;;2.35;;
80508;SDS011;69838;52.602;13.434;2023-06-04T02:16:50;4.60;;;2.30;;
80508;SDS011;69838;52.602;13.434;2023-06-04T02:17:36;5.50;;;2.10;;
80508;SDS011;69838;52.602;13.434;2023-06-04T02:18:24;4.80;;;2.38;;
80508;SDS011;69838;52.602;13.434;2023-06-04T02:19:10;5.72;;;3.42;;
80508;SDS011;69838;52.602;13.434;2023-06-04T02:19:58;4.80;;;2.42;;
80508;SDS011;69838;52.602;13.434;2023-06-04T02:20:44;5.13;;;2.50;;
80508;SDS011;69838;52.602;13.434;2023-06-04T02:21:30;6.25;;;2.63;;
80508;SDS011;69838;52.602;13.434;2023-06-04T02:22:16;4.95;;;2.55;;
80508;SDS011;69838;52.602;13.434;2023-06-04T02:23:02;5.53;;;2.92;;
80508;SDS011;69838;52.602;13.434;2023-06-04T02:23:47;4.97;;;2.78;;
80508;SDS011;69838;52.602;13.434;2023-06-04T02:24:32;4.50;;;2.20;;
80508;SDS011;69838;52.602;13.434;2023-06-04T02:25:17;4.95;;;2.47;;
80508;SDS011;69838;52.602;13.434;2023-06-04T02:26:03;4.05;;;2.30;;
80508;SDS011;69838;52.602;13.434;2023-06-04T02:26:48;5.10;;;2.30;;
80508;SDS011;69838;52.602;13.434;2023-06-04T02:27:33;4.25;;;2.20;;
80508;SDS011;69838;52.602;13.434;2023-06-04T02:28:19;5.18;;;2.45;;
80508;SDS011;69838;52.602;13.434;2023-06-04T02:29:05;5.30;;;2.40;;
80508;SDS011;69838;52.602;13.434;2023-06-04T02:29:50;4.50;;;2.40;;
80508;SDS011;69838;52.602;13.434;2023-06-04T02:30:36;5.05;;;2.40;;
80508;SDS011;69838;52.602;13.434;2023-06-04T02:31:21;3.92;;;2.35;;
80508;SDS011;69838;52.602;13.434;2023-06-04T02:32:06;4.53;;;1.92;;
80508;SDS011;69838;52.602;13.434;2023-06-04T02:32:52;4.15;;;2.22;;
80508;SDS011;69838;52.602;13.434;2023-06-04T02:33:39;5.25;;;2.40;;
80508;SDS011;69838;52.602;13.434;2023-06-04T02:34:25;4.78;;;2.60;;
80508;SDS011;69838;52.602;13.434;2023-06-04T02:35:10;4.60;;;2.30;;
80508;SDS011;69838;52.602;13.434;2023-06-04T02:35:56;5.25;;;2.22;;
80508;SDS011;69838;52.602;13.434;2023-06-04T02:36:41;5.57;;;2.45;;
80508;SDS011;69838;52.602;13.434;2023-06-04T02:37:33;5.15;;;2.75;;
80508;SDS011;69838;52.602;13.434;2023-06-04T02:38:18;5.40;;;3.13;;
80508;SDS011;69838;52.602;13.434;2023-06-04T02:39:03;4.75;;;2.47;;
80508;SDS011;69838;52.602;13.434;2023-06-04T02:39:48;4.70;;;2.58;;
80508;SDS011;69838;52.602;13.434;2023-06-04T02:40:34;6.07;;;2.42;;
80508;SDS011;69838;52.602;13.434;2023-06-04T02:41:19;4.82;;;2.92;;
80508;SDS011;69838;52.602;13.434;2023-06-04T02:42:05;5.07;;;2.33;;
80508;SDS011;69838;52.602;13.434;2023-06-04T02:42:52;5.63;;;2.72;;
80508;SDS011;69838;52.602;13.434;2023-06-04T02:43:37;5.30;;;3.30;;
80508;SDS011;69838;52.602;13.434;2023-06-04T02:44:23;5.32;;;3.55;;
80508;SDS011;69838;52.602;13.434;2023-06-04T02:45:09;7.45;;;5.18;;
80508;SDS011;69838;52.602;13.434;2023-06-04T02:45:55;6.45;;;3.67;;
80508;SDS011;69838;52.602;13.434;2023-06-04T02:46:40;8.30;;;6.15;;
80508;SDS011;69838;52.602;13.434;2023-06-04T02:47:26;7.15;;;3.83;;
80508;SDS011;69838;52.602;13.434;2023-06-04T02:48:12;7.22;;;4.43;;
80508;SDS011;69838;52.602;13.434;2023-06-04T02:48:57;7.43;;;4.00;;
80508;SDS011;69838;52.602;13.434;2023-06-04T02:49:42;7.47;;;3.90;;
80508;SDS011;69838;52.602;13.434;2023-06-04T02:50:28;6.53;;;3.83;;
80508;SDS011;69838;52.602;13.434;2023-06-04T02:51:13;7.25;;;3.90;;
80508;SDS011;69838;52.602;13.434;2023-06-04T02:51:58;5.90;;;3.17;;
80508;SDS011;69838;52.602;13.434;2023-06-04T02:52:43;5.85;;;2.95;;
80508;SDS011;69838;52.602;13.434;2023-06-04T02:53:29;5.35;;;2.92;;
80508;SDS011;69838;52.602;13.434;2023-06-04T02:54:14;6.75;;;2.95;;
80508;SDS011;69838;52.602;13.434;2023-06-04T02:55:00;4.38;;;2.25;;
80508;SDS011;69838;52.602;13.434;2023-06-04T02:55:47;4.13;;;2.47;;
80508;SDS011;69838;52.602;13.434;2023-06-04T02:56:33;6.10;;;4.25;;
80508;SDS011;69838;52.602;13.434;2023-06-04T02:57:18;5.95;;;2.80;;
80508;SDS011;69838;52.602;13.434;2023-06-04T02:58:04;4.78;;;2.63;;
80508;SDS011;69838;52.602;13.434;2023-06-04T02:58:57;4.35;;;2.13;;
80508;SDS011;69838;52.602;13.434;2023-06-04T02:59:43;4.65;;;2.20;;
80508;SDS011;69838;52.602;13.434;2023-06-04T03:00:28;5.95;;;2.90;;
80508;SDS011;69838;52.602;13.434;2023-06-04T03:01:17;4.63;;;2.42;;
80508;SDS011;69838;52.602;13.434;2023-06-04T03:02:04;4.35;;;2.35;;
80508;SDS011;69838;52.602;13.434;2023-06-04T03:02:49;4.80;;;2.60;;
80508;SDS011;69838;52.602;13.434;2023-06-04T03:03:35;5.25;;;2.47;;
80508;SDS011;69838;52.602;13.434;2023-06-04T03:04:20;5.15;;;3.17;;
80508;SDS011;69838;52.602;13.434;2023-06-04T03:05:07;5.03;;;2.80;;
80508;SDS011;69838;52.602;13.434;2023-06-04T03:05:54;5.25;;;2.58;;
80508;SDS011;69838;52.602;13.434;2023-06-04T03:06:39;5.75;;;3.42;;
80508;SDS011;69838;52.602;13.434;2023-06-04T03:07:29;5.40;;;2.60;;
80508;SDS011;69838;52.602;13.434;2023-06-04T03:08:15;4.60;;;2.65;;
80508;SDS011;69838;52.602;13.434;2023-06-04T03:09:01;5.32;;;2.58;;
80508;SDS011;69838;52.602;13.434;2023-06-04T03:09:46;4.45;;;2.67;;
80508;SDS011;69838;52.602;13.434;2023-06-04T03:10:32;4.88;;;2.95;;
80508;SDS011;69838;52.602;13.434;2023-06-04T03:11:17;6.47;;;3.97;;
80508;SDS011;69838;52.602;13.434;2023-06-04T03:12:05;5.47;;;2.95;;
80508;SDS011;69838;52.602;13.434;2023-06-04T03:12:51;4.82;;;2.45;;
80508;SDS011;69838;52.602;13.434;2023-06-04T03:13:36;4.75;;;2.53;;
80508;SDS011;69838;52.602;13.434;2023-06-04T03:14:21;6.03;;;3.30;;
80508;SDS011;69838;52.602;13.434;2023-06-04T03:15:08;4.88;;;2.50;;
80508;SDS011;69838;52.602;13.434;2023-06-04T03:15:54;4.85;;;3.00;;
80508;SDS011;69838;52.602;13.434;2023-06-04T03:16:40;4.78;;;2.70;;
80508;SDS011;69838;52.602;13.434;2023-06-04T03:17:26;4.88;;;2.85;;
80508;SDS011;69838;52.602;13.434;2023-06-04T03:18:11;5.65;;;3.22;;
80508;SDS011;69838;52.602;13.434;2023-06-04T03:18:56;7.22;;;3.50;;
80508;SDS011;69838;52.602;13.434;2023-06-04T03:19:42;9.23;;;3.92;;
80508;SDS011;69838;52.602;13.434;2023-06-04T03:20:27;8.50;;;3.92;;
80508;SDS011;69838;52.602;13.434;2023-06-04T03:21:12;6.13;;;3.42;;
80508;SDS011;69838;52.602;13.434;2023-06-04T03:21:58;6.88;;;4.22;;
80508;SDS011;69838;52.602;13.434;2023-06-04T03:22:45;6.32;;;3.67;;
80508;SDS011;69838;52.602;13.434;2023-06-04T03:23:31;8.52;;;3.80;;
80508;SDS011;69838;52.602;13.434;2023-06-04T03:24:17;7.50;;;3.67;;
80508;SDS011;69838;52.602;13.434;2023-06-04T03:25:02;6.53;;;3.70;;
80508;SDS011;69838;52.602;13.434;2023-06-04T03:25:48;6.38;;;4.03;;
80508;SDS011;69838;52.602;13.434;2023-06-04T03:26:34;6.75;;;3.45;;
80508;SDS011;69838;52.602;13.434;2023-06-04T03:27:19;6.95;;;3.25;;
80508;SDS011;69838;52.602;13.434;2023-06-04T03:28:05;6.38;;;3.58;;
80508;SDS011;69838;52.602;13.434;2023-06-04T03:28:50;6.47;;;3.72;;
80508;SDS011;69838;52.602;13.434;2023-06-04T03:29:35;4.72;;;3.00;;
80508;SDS011;69838;52.602;13.434;2023-06-04T03:30:21;6.05;;;4.05;;
80508;SDS011;69838;52.602;13.434;2023-06-04T03:31:06;7.20;;;3.90;;
80508;SDS011;69838;52.602;13.434;2023-06-04T03:31:52;6.18;;;3.92;;
80508;SDS011;69838;52.602;13.434;2023-06-04T03:32:37;6.30;;;4.68;;
80508;SDS011;69838;52.602;13.434;2023-06-04T03:33:23;8.30;;;4.20;;
80508;SDS011;69838;52.602;13.434;2023-06-04T03:34:08;7.68;;;4.80;;
80508;SDS011;69838;52.602;13.434;2023-06-04T03:34:53;7.88;;;3.92;;
80508;SDS011;69838;52.602;13.434;2023-06-04T03:35:40;7.50;;;3.78;;
80508;SDS011;69838;52.602;13.434;2023-06-04T03:36:26;8.30;;;3.83;;
80508;SDS011;69838;52.602;13.434;2023-06-04T03:37:17;6.85;;;3.67;;
80508;SDS011;69838;52.602;13.434;2023-06-04T03:38:02;6.32;;;3.80;;
80508;SDS011;69838;52.602;13.434;2023-06-04T03:38:47;5.78;;;3.45;;
80508;SDS011;69838;52.602;13.434;2023-06-04T03:39:33;7.63;;;3.58;;
80508;SDS011;69838;52.602;13.434;2023-06-04T03:40:18;6.45;;;3.50;;
80508;SDS011;69838;52.602;13.434;2023-06-04T03:41:03;6.38;;;3.63;;
80508;SDS011;69838;52.602;13.434;2023-06-04T03:41:48;5.70;;;3.55;;
80508;SDS011;69838;52.602;13.434;2023-06-04T03:42:34;6.47;;;3.40;;
80508;SDS011;69838;52.602;13.434;2023-06-04T03:43:19;6.55;;;3.45;;
80508;SDS011;69838;52.602;13.434;2023-06-04T03:44:05;6.07;;;3.22;;
80508;SDS011;69838;52.602;13.434;2023-06-04T03:44:50;6.57;;;3.13;;
80508;SDS011;69838;52.602;13.434;2023-06-04T03:45:35;4.75;;;2.67;;
80508;SDS011;69838;52.602;13.434;2023-06-04T03:46:21;5.00;;;2.95;;
80508;SDS011;69838;52.602;13.434;2023-06-04T03:47:06;5.75;;;2.90;;
80508;SDS011;69838;52.602;13.434;2023-06-04T03:47:51;6.03;;;3.25;;
80508;SDS011;69838;52.602;13.434;2023-06-04T03:48:37;6.07;;;3.38;;
80508;SDS011;69838;52.602;13.434;2023-06-04T03:49:22;4.60;;;2.47;;
80508;SDS011;69838;52.602;13.434;2023-06-04T03:50:07;5.10;;;3.17;;
80508;SDS011;69838;52.602;13.434;2023-06-04T03:50:53;6.93;;;4.82;;
80508;SDS011;69838;52.602;13.434;2023-06-04T03:51:39;5.00;;;2.80;;
80508;SDS011;69838;52.602;13.434;2023-06-04T03:52:24;4.80;;;2.40;;
80508;SDS011;69838;52.602;13.434;2023-06-04T03:53:10;5.32;;;2.50;;
80508;SDS011;69838;52.602;13.434;2023-06-04T03:53:55;5.63;;;2.65;;
80508;SDS011;69838;52.602;13.434;2023-06-04T03:54:41;4.70;;;2.42;;
80508;SDS011;69838;52.602;13.434;2023-06-04T03:55:26;7.60;;;2.33;;
80508;SDS011;69838;52.602;13.434;2023-06-04T03:56:11;4.70;;;2.58;;
80508;SDS011;69838;52.602;13.434;2023-06-04T03:56:57;6.72;;;2.60;;
80508;SDS011;69838;52.602;13.434;2023-06-04T03:57:42;5.80;;;2.55;;
80508;SDS011;69838;52.602;13.434;2023-06-04T03:58:27;5.28;;;2.45;;
80508;SDS011;69838;52.602;13.434;2023-06-04T03:59:13;4.72;;;1.92;;
80508;SDS011;69838;52.602;13.434;2023-06-04T03:59:58;4.78;;;2.50;;
80508;SDS011;69838;52.602;13.434;2023-06-04T04:00:44;3.90;;;2.05;;
80508;SDS011;69838;52.602;13.434;2023-06-04T04:01:29;4.40;;;2.03;;
80508;SDS011;69838;52.602;13.434;2023-06-04T04:02:14;4.63;;;3.42;;
80508;SDS011;69838;52.602;13.434;2023-06-04T04:03:00;6.28;;;1.67;;
80508;SDS011;69838;52.602;13.434;2023-06-04T04:03:45;3.40;;;1.60;;
80508;SDS011;69838;52.602;13.434;2023-06-04T04:04:34;4.10;;;2.08;;
80508;SDS011;69838;52.602;13.434;2023-06-04T04:05:19;6.18;;;2.67;;
80508;SDS011;69838;52.602;13.434;2023-06-04T04:06:04;4.47;;;2.15;;
80508;SDS011;69838;52.602;13.434;2023-06-04T04:06:49;4.43;;;1.80;;
80508;SDS011;69838;52.602;13.434;2023-06-04T04:07:36;4.60;;;2.42;;
80508;SDS011;69838;52.602;13.434;2023-06-04T04:08:21;4.30;;;1.83;;
80508;SDS011;69838;52.602;13.434;2023-06-04T04:09:06;4.95;;;2.95;;
80508;SDS011;69838;52.602;13.434;2023-06-04T04:09:52;3.88;;;2.30;;
80508;SDS011;69838;52.602;13.434;2023-06-04T04:10:37;3.95;;;2.13;;
80508;SDS011;69838;52.602;13.434;2023-06-04T04:11:22;4.65;;;2.00;;
80508;SDS011;69838;52.602;13.434;2023-06-04T04:12:07;5.05;;;2.13;;
80508;SDS011;69838;52.602;13.434;2023-06-04T04:12:53;4.28;;;1.95;;
80508;SDS011;69838;52.602;13.434;2023-06-04T04:13:39;5.15;;;2.42;;
80508;SDS011;69838;52.602;13.434;2023-06-04T04:14:25;4.40;;;1.90;;
80508;SDS011;69838;52.602;13.434;2023-06-04T04:15:10;3.92;;;1.85;;
80508;SDS011;69838;52.602;13.434;2023-06-04T04:15:55;4.68;;;2.15;;
80508;SDS011;69838;52.602;13.434;2023-06-04T04:16:40;4.72;;;2.10;;
80508;SDS011;69838;52.602;13.434;2023-06-04T04:17:26;4.35;;;2.15;;
80508;SDS011;69838;52.602;13.434;2023-06-04T04:18:11;5.05;;;2.40;;
80508;SDS011;69838;52.602;13.434;2023-06-04T04:18:56;4.38;;;2.83;;
80508;SDS011;69838;52.602;13.434;2023-06-04T04:19:42;4.53;;;2.38;;
80508;SDS011;69838;52.602;13.434;2023-06-04T04:20:27;3.90;;;2.08;;
80508;SDS011;69838;52.602;13.434;2023-06-04T04:21:12;3.40;;;2.03;;
80508;SDS011;69838;52.602;13.434;2023-06-04T04:21:57;4.13;;;2.20;;
80508;SDS011;69838;52.602;13.434;2023-06-04T04:22:43;4.63;;;2.00;;
80508;SDS011;69838;52.602;13.434;2023-06-04T04:23:28;4.03;;;1.80;;
80508;SDS011;69838;52.602;13.434;2023-06-04T04:24:23;5.00;;;1.73;;
80508;SDS011;69838;52.602;13.434;2023-06-04T04:25:10;4.22;;;1.85;;
80508;SDS011;69838;52.602;13.434;2023-06-04T04:25:55;3.70;;;1.98;;
80508;SDS011;69838;52.602;13.434;2023-06-04T04:26:43;4.70;;;2.33;;
80508;SDS011;69838;52.602;13.434;2023-06-04T04:27:29;4.60;;;2.20;;
80508;SDS011;69838;52.602;13.434;2023-06-04T04:28:16;3.85;;;1.90;;
80508;SDS011;69838;52.602;13.434;2023-06-04T04:29:02;3.90;;;2.08;;
80508;SDS011;69838;52.602;13.434;2023-06-04T04:29:48;3.88;;;2.10;;
80508;SDS011;69838;52.602;13.434;2023-06-04T04:30:34;4.10;;;2.53;;
80508;SDS011;69838;52.602;13.434;2023-06-04T04:31:20;3.90;;;2.10;;
80508;SDS011;69838;52.602;13.434;2023-06-04T04:32:07;3.92;;;2.40;;
80508;SDS011;69838;52.602;13.434;2023-06-04T04:32:55;3.38;;;1.75;;
80508;SDS011;69838;52.602;13.434;2023-06-04T04:33:40;3.53;;;2.20;;
80508;SDS011;69838;52.602;13.434;2023-06-04T04:34:26;5.55;;;2.42;;
80508;SDS011;69838;52.602;13.434;2023-06-04T04:35:12;3.90;;;2.47;;
80508;SDS011;69838;52.602;13.434;2023-06-04T04:35:57;4.00;;;2.33;;